Time;durP1;ratioP1;P1;durP2;ratioP2;P2;SDS_P1;SDS_P2;PMS_P1;PMS_P2;Temp;Humidity;BMP_temperature;BMP_pressure;BME280_temperature;BME280_humidity;BME280_pressure;Samples;Min_cycle;Max_cycle;Signal;HPM_P1;HPM_P2
2023/06/09 00:02:04;;;;;;;10.40;4.60;;;13.90;99.90;;;;;;5021990;28;20051;-78
2023/06/09 00:04:33;;;;;;;12.68;5.50;;;13.30;99.90;;;;;;5036793;28;20085;-79
2023/06/09 00:06:59;;;;;;;10.93;5.40;;;14.40;99.90;;;;;;5036204;28;20041;-79
2023/06/09 00:09:25;;;;;;;16.83;5.57;;;13.30;99.90;;;;;;5020267;28;20045;-80
2023/06/09 00:11:51;;;;;;;16.50;5.13;;;13.30;99.90;;;;;;5019432;28;20041;-80
2023/06/09 00:14:17;;;;;;;11.68;4.55;;;15.00;99.90;;;;;;5038812;28;20037;-79
2023/06/09 00:16:46;;;;;;;16.90;5.00;;;13.50;99.90;;;;;;5040195;28;20037;-80
2023/06/09 00:19:16;;;;;;;15.00;5.30;;;15.10;99.90;;;;;;5038439;28;20064;-80
2023/06/09 00:21:49;;;;;;;13.25;5.03;;;13.30;99.90;;;;;;5018261;28;20428;-79
2023/06/09 00:24:22;;;;;;;14.98;4.82;;;14.80;99.90;;;;;;5021536;28;20064;-80
2023/06/09 00:26:49;;;;;;;13.03;5.00;;;13.20;99.90;;;;;;5022383;28;20049;-80
2023/06/09 00:29:17;;;;;;;17.88;4.95;;;13.20;99.90;;;;;;5037341;28;20045;-80
2023/06/09 00:31:42;;;;;;;15.23;5.60;;;13.20;99.90;;;;;;5036960;28;20046;-80
2023/06/09 00:34:08;;;;;;;15.10;4.90;;;13.10;99.90;;;;;;5037674;28;20036;-80
2023/06/09 00:36:36;;;;;;;12.48;4.13;;;14.10;99.90;;;;;;5021538;28;20048;-80
2023/06/09 00:39:02;;;;;;;20.58;6.82;;;13.20;99.90;;;;;;5039876;28;20408;-80
2023/06/09 00:41:27;;;;;;;17.30;5.88;;;13.10;99.90;;;;;;5035883;28;20060;-80
2023/06/09 00:43:55;;;;;;;15.65;5.50;;;14.90;99.90;;;;;;5036882;28;20034;-80
2023/06/09 00:46:22;;;;;;;15.05;6.28;;;13.80;99.90;;;;;;5040858;28;20045;-80
2023/06/09 00:48:49;;;;;;;23.90;6.60;;;13.10;99.90;;;;;;5025339;28;20471;-80
2023/06/09 00:51:16;;;;;;;12.07;6.30;;;13.60;99.90;;;;;;5041938;28;20041;-80
2023/06/09 00:53:42;;;;;;;14.15;5.55;;;13.40;99.90;;;;;;5022500;28;20045;-80
2023/06/09 00:56:07;;;;;;;15.68;6.38;;;13.10;99.90;;;;;;5040333;28;20041;-79
2023/06/09 00:58:34;;;;;;;17.10;6.38;;;13.10;99.90;;;;;;5043296;28;20329;-80
2023/06/09 01:01:00;;;;;;;21.95;6.70;;;13.10;99.90;;;;;;5043689;28;20040;-80
2023/06/09 01:03:27;;;;;;;16.52;7.10;;;14.30;99.90;;;;;;5021360;28;20346;-80
2023/06/09 01:06:16;;;;;;;19.30;6.72;;;14.10;99.90;;;;;;5040640;28;20045;-80
2023/06/09 01:08:52;;;;;;;15.63;6.90;;;13.10;99.90;;;;;;5007507;28;20508;-80
2023/06/09 01:11:27;;;;;;;16.75;6.53;;;14.50;99.90;;;;;;5041389;28;20120;-80
2023/06/09 01:14:13;;;;;;;19.00;6.68;;;13.30;99.90;;;;;;5044446;28;20029;-80
2023/06/09 01:17:07;;;;;;;20.50;7.78;;;13.00;99.90;;;;;;5030375;28;20044;-81
2023/06/09 01:19:41;;;;;;;19.80;6.82;;;13.00;99.90;;;;;;5032938;28;20397;-80
2023/06/09 01:22:31;;;;;;;14.13;6.57;;;13.00;99.90;;;;;;5041525;28;20092;-79
2023/06/09 01:25:34;;;;;;;20.55;7.18;;;13.00;99.90;;;;;;5042993;28;20037;-80
2023/06/09 01:28:26;;;;;;;19.05;6.90;;;13.00;99.90;;;;;;5012841;28;20045;-80
2023/06/09 01:30:54;;;;;;;29.45;7.47;;;12.90;99.90;;;;;;5026025;28;20486;-80
2023/06/09 01:33:22;;;;;;;18.42;6.53;;;12.90;99.90;;;;;;5041605;28;20045;-80
2023/06/09 01:35:49;;;;;;;18.13;6.55;;;14.30;99.90;;;;;;5043278;28;20056;-80
2023/06/09 01:38:15;;;;;;;18.45;6.45;;;12.90;99.90;;;;;;5040688;28;20128;-80
2023/06/09 01:40:43;;;;;;;20.23;6.93;;;14.10;99.90;;;;;;5039032;28;20052;-81
2023/06/09 01:43:08;;;;;;;16.63;6.82;;;12.90;99.90;;;;;;5039560;28;20482;-80
2023/06/09 01:45:34;;;;;;;18.40;6.75;;;13.60;99.90;;;;;;5038802;28;20115;-80
2023/06/09 01:48:23;;;;;;;15.68;5.75;;;12.90;99.90;;;;;;5039352;28;20402;-80
2023/06/09 01:51:20;;;;;;;12.88;6.20;;;12.80;99.90;;;;;;5033357;28;20076;-80
2023/06/09 01:53:54;;;;;;;17.83;6.90;;;12.80;99.90;;;;;;5032028;28;20120;-80
2023/06/09 01:56:25;;;;;;;16.85;5.70;;;14.50;99.90;;;;;;5040416;28;20049;-80
2023/06/09 01:58:58;;;;;;;22.42;7.55;;;12.80;99.90;;;;;;5041117;28;20041;-80
2023/06/09 02:01:25;;;;;;;18.60;6.82;;;12.80;99.90;;;;;;5039473;28;20045;-80
2023/06/09 02:03:53;;;;;;;23.27;7.05;;;12.80;99.90;;;;;;5039327;28;20040;-80
2023/06/09 02:06:20;;;;;;;19.08;6.88;;;13.50;99.90;;;;;;5039747;28;20053;-81
2023/06/09 02:08:46;;;;;;;19.83;6.88;;;12.80;99.90;;;;;;5042452;28;20059;-80
2023/06/09 02:11:11;;;;;;;15.93;6.72;;;12.80;99.90;;;;;;5041743;28;20080;-81
2023/06/09 02:13:37;;;;;;;17.33;6.88;;;12.80;99.90;;;;;;5038230;28;20088;-80
2023/06/09 02:16:03;;;;;;;15.05;6.38;;;14.30;99.90;;;;;;5039258;28;20485;-80
2023/06/09 02:18:32;;;;;;;17.63;7.18;;;12.80;99.90;;;;;;5041088;28;20111;-81
2023/06/09 02:20:58;;;;;;;19.30;6.75;;;12.80;99.90;;;;;;5041572;28;20489;-80
2023/06/09 02:23:24;;;;;;;14.70;6.43;;;13.20;99.90;;;;;;5039520;28;20061;-80
2023/06/09 02:25:50;;;;;;;16.45;6.50;;;12.80;99.90;;;;;;5038893;28;20037;-81
2023/06/09 02:28:16;;;;;;;15.07;6.82;;;14.40;99.90;;;;;;5038758;28;20116;-80
2023/06/09 02:30:44;;;;;;;17.63;6.63;;;13.10;99.90;;;;;;5041694;28;20040;-80
2023/06/09 02:33:14;;;;;;;18.17;6.55;;;14.40;99.90;;;;;;5041460;28;20519;-81
2023/06/09 02:35:40;;;;;;;12.60;6.75;;;12.80;99.90;;;;;;5037804;28;20057;-80
2023/06/09 02:38:06;;;;;;;13.23;5.88;;;12.80;99.90;;;;;;5038013;28;20092;-80
2023/06/09 02:40:32;;;;;;;12.30;6.68;;;12.70;99.90;;;;;;5023221;28;20539;-80
2023/06/09 02:42:59;;;;;;;15.15;6.28;;;12.70;99.90;;;;;;5041461;28;20041;-80
2023/06/09 02:45:25;;;;;;;18.58;7.07;;;13.40;99.90;;;;;;5039267;28;20048;-80
2023/06/09 02:47:51;;;;;;;15.45;6.75;;;14.30;99.90;;;;;;5043962;28;20245;-80
2023/06/09 02:50:17;;;;;;;13.20;6.68;;;14.30;99.90;;;;;;5040169;28;20040;-81
2023/06/09 02:52:43;;;;;;;17.13;6.88;;;12.70;99.90;;;;;;5038532;28;20029;-81
2023/06/09 02:55:08;;;;;;;19.02;7.18;;;13.30;99.90;;;;;;5037703;28;20565;-81
2023/06/09 02:57:34;;;;;;;18.77;7.47;;;12.60;99.90;;;;;;5023104;28;20033;-81
2023/06/09 03:00:00;;;;;;;15.70;6.55;;;12.90;99.90;;;;;;5041445;28;20048;-80
2023/06/09 03:02:28;;;;;;;14.85;6.57;;;12.70;99.90;;;;;;5032474;28;20041;-80
2023/06/09 03:04:55;;;;;;;20.33;6.85;;;13.70;99.90;;;;;;5036764;28;20069;-80
2023/06/09 03:07:20;;;;;;;15.77;6.63;;;12.70;99.90;;;;;;5048719;28;20049;-80
2023/06/09 03:09:46;;;;;;;19.42;6.60;;;12.70;99.90;;;;;;5029342;28;20040;-80
2023/06/09 03:12:11;;;;;;;12.95;7.22;;;12.70;99.90;;;;;;5041805;28;20446;-81
2023/06/09 03:14:37;;;;;;;20.15;7.50;;;14.40;99.90;;;;;;5037642;28;20485;-80
2023/06/09 03:17:04;;;;;;;16.80;7.43;;;12.60;99.90;;;;;;5037195;28;20080;-80
2023/06/09 03:19:30;;;;;;;16.83;7.97;;;12.70;99.90;;;;;;5039401;28;20037;-80
2023/06/09 03:21:57;;;;;;;20.73;7.05;;;13.10;99.90;;;;;;5023486;28;20075;-80
2023/06/09 03:24:23;;;;;;;19.75;8.00;;;12.70;99.90;;;;;;5038941;28;20040;-81
2023/06/09 03:26:49;;;;;;;10.75;6.80;;;13.50;99.90;;;;;;5037389;28;20471;-82
2023/06/09 03:29:15;;;;;;;17.08;7.75;;;12.70;99.90;;;;;;5037467;28;20049;-82
2023/06/09 03:31:41;;;;;;;18.70;8.07;;;14.30;99.90;;;;;;5040260;28;20200;-81
2023/06/09 03:34:07;;;;;;;18.25;7.38;;;12.60;99.90;;;;;;5040645;28;20045;-81
2023/06/09 03:36:33;;;;;;;19.00;7.03;;;14.30;99.90;;;;;;5037780;28;20060;-82
2023/06/09 03:38:59;;;;;;;22.48;8.48;;;13.60;99.90;;;;;;5037214;28;20136;-81
2023/06/09 03:41:25;;;;;;;13.20;6.88;;;14.10;99.90;;;;;;5038325;28;20623;-79
2023/06/09 03:43:50;;;;;;;15.15;7.18;;;13.10;99.90;;;;;;5041173;28;20102;-80
2023/06/09 03:46:16;;;;;;;19.08;7.70;;;12.60;99.90;;;;;;5039697;28;20037;-81
2023/06/09 03:48:42;;;;;;;15.25;6.38;;;12.60;99.90;;;;;;5037041;28;20091;-80
2023/06/09 03:51:07;;;;;;;16.67;6.75;;;12.70;99.90;;;;;;5018421;28;20049;-82
2023/06/09 03:53:33;;;;;;;15.27;6.63;;;12.60;99.90;;;;;;5022399;28;20401;-80
2023/06/09 03:55:59;;;;;;;14.32;6.45;;;12.60;99.90;;;;;;5023082;28;20075;-80
2023/06/09 03:58:25;;;;;;;19.40;7.35;;;12.60;99.90;;;;;;5038087;28;20377;-81
2023/06/09 04:00:51;;;;;;;13.25;6.93;;;12.60;99.90;;;;;;5015992;28;20515;-80
2023/06/09 04:03:18;;;;;;;19.75;7.50;;;12.60;99.90;;;;;;5040768;28;20032;-79
2023/06/09 04:05:44;;;;;;;14.00;6.60;;;13.00;99.90;;;;;;5028871;28;20048;-80
2023/06/09 04:08:10;;;;;;;13.27;7.40;;;12.60;99.90;;;;;;5036918;28;20127;-80
2023/06/09 04:10:36;;;;;;;16.17;7.07;;;12.60;99.90;;;;;;5039320;28;20557;-80
2023/06/09 04:13:02;;;;;;;18.02;7.53;;;12.60;99.90;;;;;;5042276;28;20050;-81
2023/06/09 04:15:27;;;;;;;17.75;7.80;;;12.70;99.90;;;;;;5037915;28;20125;-80
2023/06/09 04:17:53;;;;;;;12.93;6.68;;;12.70;99.90;;;;;;5043922;28;20076;-80
2023/06/09 04:20:22;;;;;;;18.52;7.35;;;12.70;99.90;;;;;;5036769;28;20408;-80
2023/06/09 04:22:48;;;;;;;20.67;7.30;;;12.80;99.90;;;;;;5044784;28;20091;-80
2023/06/09 04:25:14;;;;;;;17.23;7.82;;;12.70;99.90;;;;;;5044420;28;20033;-80
2023/06/09 04:27:41;;;;;;;14.82;6.40;;;12.80;99.90;;;;;;5022666;28;20033;-80
2023/06/09 04:30:08;;;;;;;17.00;6.30;;;12.80;99.90;;;;;;5047381;28;20083;-80
2023/06/09 04:32:34;;;;;;;22.63;7.55;;;12.80;99.90;;;;;;5024231;28;20543;-80
2023/06/09 04:35:01;;;;;;;13.35;6.65;;;13.80;99.90;;;;;;5019279;28;20076;-80
2023/06/09 04:37:27;;;;;;;19.40;6.00;;;12.80;99.90;;;;;;5044180;28;20046;-80
2023/06/09 04:39:52;;;;;;;23.77;6.57;;;14.40;99.90;;;;;;5045922;28;20037;-80
2023/06/09 04:42:20;;;;;;;16.70;6.80;;;13.50;99.90;;;;;;5044742;28;20090;-79
2023/06/09 04:44:47;;;;;;;15.52;6.13;;;12.90;99.90;;;;;;5025868;28;20033;-80
2023/06/09 04:47:20;;;;;;;14.57;5.60;;;12.90;99.90;;;;;;5041825;28;20076;-80
2023/06/09 04:49:46;;;;;;;19.58;6.00;;;14.30;99.90;;;;;;5045674;28;20025;-80
2023/06/09 04:52:19;;;;;;;17.77;7.10;;;13.50;99.90;;;;;;5045397;28;20033;-80
2023/06/09 04:54:45;;;;;;;18.65;6.78;;;14.40;99.90;;;;;;5039217;28;20540;-80
2023/06/09 04:57:17;;;;;;;22.60;6.43;;;14.40;99.90;;;;;;5054596;28;20040;-80
2023/06/09 04:59:45;;;;;;;18.40;6.47;;;13.70;99.90;;;;;;5047962;28;20535;-80
2023/06/09 05:02:11;;;;;;;22.77;7.07;;;13.70;99.90;;;;;;5040707;28;20060;-81
2023/06/09 05:04:37;;;;;;;16.05;6.90;;;13.80;99.90;;;;;;5042791;28;20076;-80
2023/06/09 05:07:03;;;;;;;16.88;6.25;;;13.80;99.90;;;;;;5044594;28;20044;-80
2023/06/09 05:09:29;;;;;;;20.63;6.82;;;13.10;99.90;;;;;;5042758;28;20040;-80
2023/06/09 05:11:55;;;;;;;15.98;6.47;;;14.70;99.90;;;;;;5041906;28;20060;-80
2023/06/09 05:14:20;;;;;;;25.20;6.47;;;13.20;99.90;;;;;;5040762;28;20566;-80
2023/06/09 05:16:46;;;;;;;19.25;6.30;;;13.70;99.90;;;;;;5040018;28;20042;-80
2023/06/09 05:19:12;;;;;;;15.90;6.40;;;14.10;99.90;;;;;;5040705;28;20137;-81
2023/06/09 05:21:38;;;;;;;14.27;5.68;;;13.70;99.90;;;;;;5042530;28;20082;-81
2023/06/09 05:24:05;;;;;;;11.77;5.90;;;13.30;99.90;;;;;;5045919;28;20033;-80
2023/06/09 05:26:32;;;;;;;16.23;6.15;;;13.30;99.90;;;;;;5026728;28;20048;-81
2023/06/09 05:29:06;;;;;;;12.23;6.18;;;13.30;99.90;;;;;;5026941;28;20390;-79
2023/06/09 05:31:32;;;;;;;19.80;7.60;;;13.30;99.90;;;;;;5041065;28;20047;-79
2023/06/09 05:33:58;;;;;;;14.07;6.50;;;13.30;99.90;;;;;;5044913;28;20056;-79
2023/06/09 05:36:24;;;;;;;14.15;6.30;;;13.70;99.90;;;;;;5043992;28;20147;-81
2023/06/09 05:38:49;;;;;;;22.80;6.75;;;13.80;99.90;;;;;;5040644;28;20044;-80
2023/06/09 05:41:15;;;;;;;20.45;7.55;;;13.80;99.90;;;;;;5023815;28;20071;-81
2023/06/09 05:43:40;;;;;;;19.50;7.50;;;13.50;99.90;;;;;;5039789;28;20106;-81
2023/06/09 05:46:06;;;;;;;22.50;7.32;;;13.50;99.90;;;;;;5039115;28;20041;-81
2023/06/09 05:48:32;;;;;;;16.58;6.07;;;13.80;99.90;;;;;;5039900;28;20432;-81
2023/06/09 05:50:58;;;;;;;13.18;6.55;;;13.60;99.90;;;;;;5042924;28;20037;-81
2023/06/09 05:53:24;;;;;;;20.58;7.10;;;15.40;99.90;;;;;;5027098;28;20381;-80
2023/06/09 05:55:52;;;;;;;16.33;5.95;;;13.70;99.90;;;;;;5022334;28;20060;-80
2023/06/09 05:58:18;;;;;;;21.10;6.82;;;13.70;99.90;;;;;;5021298;28;20073;-80
2023/06/09 06:00:44;;;;;;;15.70;6.60;;;13.70;99.90;;;;;;5042387;28;20049;-79
2023/06/09 06:03:11;;;;;;;15.98;6.57;;;14.20;99.90;;;;;;5025754;28;20036;-80
2023/06/09 06:05:37;;;;;;;23.85;7.57;;;13.90;99.90;;;;;;5042851;28;20041;-80
2023/06/09 06:08:03;;;;;;;21.02;7.85;;;13.80;99.90;;;;;;5041006;28;20104;-79
2023/06/09 06:10:28;;;;;;;20.27;7.30;;;13.90;99.90;;;;;;5038724;28;20525;-80
2023/06/09 06:12:54;;;;;;;22.45;7.13;;;14.40;99.90;;;;;;5042022;28;20039;-80
2023/06/09 06:15:21;;;;;;;14.48;6.20;;;14.90;99.90;;;;;;5042130;28;20076;-80
2023/06/09 06:17:46;;;;;;;23.13;7.03;;;14.00;99.90;;;;;;5040049;28;20040;-80
2023/06/09 06:20:12;;;;;;;18.92;7.15;;;14.00;99.90;;;;;;5037831;28;20042;-79
2023/06/09 06:22:39;;;;;;;16.65;6.30;;;14.10;99.90;;;;;;5039466;28;20051;-80
2023/06/09 06:25:05;;;;;;;18.48;6.63;;;15.30;99.90;;;;;;5042531;28;20390;-80
2023/06/09 06:27:30;;;;;;;16.02;6.53;;;14.10;99.90;;;;;;5040897;28;20044;-79
2023/06/09 06:29:56;;;;;;;19.77;7.15;;;14.20;99.90;;;;;;5038813;28;20084;-80
2023/06/09 06:32:22;;;;;;;20.02;7.22;;;15.20;99.90;;;;;;5020519;28;20053;-80
2023/06/09 06:34:47;;;;;;;15.40;5.85;;;14.30;99.90;;;;;;5040152;28;20048;-79
2023/06/09 06:37:13;;;;;;;20.23;7.15;;;14.30;99.90;;;;;;5041262;28;20690;-80
2023/06/09 06:39:38;;;;;;;13.48;6.50;;;14.80;99.90;;;;;;5040872;28;20443;-79
2023/06/09 06:42:05;;;;;;;19.63;7.65;;;15.60;99.90;;;;;;5038522;28;20068;-79
2023/06/09 06:44:31;;;;;;;21.17;7.03;;;14.50;99.90;;;;;;5043650;28;20042;-79
2023/06/09 06:46:56;;;;;;;17.42;7.20;;;14.50;99.90;;;;;;5020898;28;20326;-79
2023/06/09 06:49:22;;;;;;;13.77;6.15;;;16.00;99.90;;;;;;5046498;28;20365;-79
2023/06/09 06:51:48;;;;;;;17.40;7.38;;;14.60;99.90;;;;;;5039858;28;20604;-79
2023/06/09 06:54:15;;;;;;;17.02;6.95;;;16.30;99.90;;;;;;5037607;28;20048;-79
2023/06/09 06:56:41;;;;;;;18.73;7.13;;;15.60;99.90;;;;;;5038705;28;20068;-79
2023/06/09 06:59:07;;;;;;;18.35;6.88;;;15.90;99.90;;;;;;5041277;28;20372;-79
2023/06/09 07:01:33;;;;;;;21.33;6.88;;;14.90;99.90;;;;;;5040509;28;20145;-80
2023/06/09 07:03:59;;;;;;;15.82;6.53;;;14.90;99.90;;;;;;5003909;28;20045;-79
2023/06/09 07:06:25;;;;;;;20.85;6.93;;;15.00;99.90;;;;;;5037048;28;20438;-79
2023/06/09 07:08:53;;;;;;;15.48;6.43;;;15.10;99.90;;;;;;5039869;28;20102;-79
2023/06/09 07:11:19;;;;;;;15.77;6.47;;;15.10;99.90;;;;;;5041299;28;20049;-79
2023/06/09 07:13:45;;;;;;;19.00;6.28;;;15.10;99.90;;;;;;5021804;28;20094;-79
2023/06/09 07:16:10;;;;;;;13.35;5.95;;;15.10;99.90;;;;;;5036853;28;20465;-79
2023/06/09 07:18:36;;;;;;;18.80;6.28;;;15.20;99.90;;;;;;5037702;28;20096;-79
2023/06/09 07:21:02;;;;;;;21.23;7.45;;;15.20;99.90;;;;;;5041369;28;20045;-79
2023/06/09 07:23:28;;;;;;;17.73;6.78;;;15.30;99.90;;;;;;5040428;28;20065;-79
2023/06/09 07:25:54;;;;;;;13.65;5.80;;;15.40;99.90;;;;;;5038609;28;20135;-79
2023/06/09 07:28:20;;;;;;;18.23;7.35;;;15.50;99.90;;;;;;5037110;28;20037;-79
2023/06/09 07:30:47;;;;;;;13.10;5.68;;;15.60;99.90;;;;;;5038323;28;20095;-79
2023/06/09 07:33:13;;;;;;;22.02;7.05;;;15.60;99.90;;;;;;5040734;28;20041;-79
2023/06/09 07:35:40;;;;;;;14.55;6.00;;;15.70;99.90;;;;;;5040463;28;20060;-79
2023/06/09 07:38:08;;;;;;;17.08;6.50;;;17.00;99.90;;;;;;5036799;28;20058;-79
2023/06/09 07:40:33;;;;;;;19.63;6.15;;;15.90;99.90;;;;;;5037490;28;20056;-79
2023/06/09 07:42:59;;;;;;;15.60;5.72;;;16.00;99.90;;;;;;5022471;28;20037;-79
2023/06/09 07:45:24;;;;;;;13.23;5.78;;;16.10;99.90;;;;;;5033431;28;20140;-79
2023/06/09 07:47:50;;;;;;;14.20;5.38;;;16.10;99.90;;;;;;5038776;28;20044;-79
2023/06/09 07:50:17;;;;;;;15.63;5.40;;;16.10;99.90;;;;;;5043618;28;20034;-79
2023/06/09 07:52:43;;;;;;;17.60;5.68;;;16.20;99.90;;;;;;5037227;28;20131;-79
2023/06/09 07:55:08;;;;;;;11.57;5.30;;;16.60;99.90;;;;;;5040646;28;20120;-79
2023/06/09 07:57:34;;;;;;;11.85;5.22;;;16.40;99.90;;;;;;5039610;28;20395;-79
2023/06/09 08:00:00;;;;;;;14.27;5.57;;;16.40;99.90;;;;;;5037810;28;20152;-79
2023/06/09 08:02:26;;;;;;;14.75;5.55;;;16.50;99.90;;;;;;5019268;28;20093;-79
2023/06/09 08:04:51;;;;;;;16.23;5.47;;;16.90;99.90;;;;;;5038353;28;20107;-80
2023/06/09 08:07:17;;;;;;;16.98;5.80;;;16.60;99.90;;;;;;5039902;28;20447;-79
2023/06/09 08:09:43;;;;;;;15.80;5.78;;;16.70;99.90;;;;;;5006092;28;20045;-79
2023/06/09 08:12:10;;;;;;;13.30;5.18;;;16.70;99.90;;;;;;5036657;28;20048;-79
2023/06/09 08:14:35;;;;;;;10.98;5.00;;;16.80;99.90;;;;;;5037136;28;20038;-79
2023/06/09 08:17:01;;;;;;;8.90;4.95;;;17.60;99.90;;;;;;5021936;28;20055;-79
2023/06/09 08:19:28;;;;;;;14.00;5.90;;;16.90;99.90;;;;;;5039610;28;20127;-79
2023/06/09 08:21:53;;;;;;;10.93;5.50;;;17.00;99.90;;;;;;5039064;28;20041;-79
2023/06/09 08:24:20;;;;;;;14.10;5.85;;;17.30;99.90;;;;;;5037164;28;20096;-79
2023/06/09 08:26:48;;;;;;;13.15;5.03;;;17.20;99.90;;;;;;5019487;28;20136;-80
2023/06/09 08:29:15;;;;;;;9.82;5.22;;;17.30;99.90;;;;;;5042731;28;20041;-80
2023/06/09 08:31:41;;;;;;;13.15;5.40;;;17.40;99.90;;;;;;5027168;28;20061;-79
2023/06/09 08:34:07;;;;;;;8.57;4.72;;;17.90;99.90;;;;;;5047386;28;20045;-80
2023/06/09 08:36:33;;;;;;;15.50;5.00;;;17.80;99.90;;;;;;5044077;28;20065;-80
2023/06/09 08:38:58;;;;;;;12.85;5.43;;;17.60;99.90;;;;;;5022858;28;20042;-79
2023/06/09 08:41:27;;;;;;;10.43;5.18;;;17.70;99.90;;;;;;5040614;28;20392;-79
2023/06/09 08:43:53;;;;;;;12.02;5.05;;;17.70;99.90;;;;;;5040766;28;20045;-79
2023/06/09 08:46:20;;;;;;;12.02;5.13;;;17.80;99.90;;;;;;5037428;28;20136;-80
2023/06/09 08:48:52;;;;;;;17.30;5.05;;;17.80;99.90;;;;;;5037837;28;20117;-80
2023/06/09 08:51:21;;;;;;;14.23;5.03;;;18.00;99.90;;;;;;5029067;28;20116;-79
2023/06/09 08:53:54;;;;;;;14.32;4.97;;;18.10;99.90;;;;;;5040605;28;20076;-80
2023/06/09 08:56:23;;;;;;;12.55;4.82;;;18.20;99.90;;;;;;5013813;28;20041;-79
2023/06/09 08:58:50;;;;;;;8.85;4.63;;;18.30;99.90;;;;;;5019313;28;20037;-80
2023/06/09 09:01:20;;;;;;;11.75;4.93;;;18.40;99.90;;;;;;5035274;28;20624;-80
2023/06/09 09:03:50;;;;;;;13.38;5.18;;;18.40;99.90;;;;;;5037216;28;20034;-80
2023/06/09 09:06:16;;;;;;;9.27;4.22;;;18.50;99.90;;;;;;5021232;28;20632;-79
2023/06/09 09:08:44;;;;;;;11.00;4.85;;;18.60;99.90;;;;;;5040097;28;20041;-79
2023/06/09 09:11:10;;;;;;;13.43;4.63;;;18.80;99.90;;;;;;5025250;28;20057;-80
2023/06/09 09:13:36;;;;;;;15.20;5.57;;;18.70;99.90;;;;;;5043904;28;20488;-79
2023/06/09 09:16:02;;;;;;;16.45;4.80;;;18.80;99.90;;;;;;5041702;28;20584;-80
2023/06/09 09:18:34;;;;;;;11.27;4.72;;;19.10;99.90;;;;;;5040138;28;20371;-80
2023/06/09 09:21:03;;;;;;;12.93;4.80;;;19.10;99.90;;;;;;5042037;28;20382;-79
2023/06/09 09:23:30;;;;;;;14.25;5.30;;;19.10;99.90;;;;;;5042702;28;20049;-80
2023/06/09 09:26:03;;;;;;;12.63;4.18;;;19.20;99.90;;;;;;5043284;28;20041;-80
2023/06/09 09:28:39;;;;;;;9.60;4.47;;;19.20;99.90;;;;;;5040891;28;20094;-80
2023/06/09 09:31:07;;;;;;;14.15;4.57;;;19.30;99.90;;;;;;5041683;28;20053;-80
2023/06/09 09:33:36;;;;;;;16.15;4.53;;;19.50;99.90;;;;;;5043281;28;20408;-79
2023/06/09 09:36:03;;;;;;;11.25;4.90;;;19.60;99.90;;;;;;5023093;28;20061;-80
2023/06/09 09:38:30;;;;;;;12.93;4.65;;;19.60;99.90;;;;;;5039620;28;20512;-80
2023/06/09 09:40:57;;;;;;;11.77;4.25;;;19.80;99.90;;;;;;5040131;28;20044;-81
2023/06/09 09:43:25;;;;;;;12.57;4.57;;;19.80;99.90;;;;;;5041968;28;20404;-79
2023/06/09 09:45:53;;;;;;;10.15;4.15;;;19.90;99.90;;;;;;5025151;28;20051;-79
2023/06/09 09:48:22;;;;;;;10.20;4.07;;;20.00;99.90;;;;;;5039441;28;20444;-79
2023/06/09 09:50:50;;;;;;;12.30;4.13;;;20.10;99.90;;;;;;5038968;28;20045;-79
2023/06/09 09:53:16;;;;;;;9.93;3.90;;;20.20;99.90;;;;;;5042063;28;20488;-79
2023/06/09 09:55:44;;;;;;;10.65;4.15;;;20.50;99.90;;;;;;5024787;28;20037;-79
2023/06/09 09:58:10;;;;;;;12.93;4.55;;;20.40;99.90;;;;;;5039646;28;20429;-79
2023/06/09 10:00:38;;;;;;;13.88;4.35;;;20.70;99.90;;;;;;5038991;28;20045;-79
2023/06/09 10:03:14;;;;;;;14.57;4.25;;;20.60;99.90;;;;;;5040848;28;20048;-79
2023/06/09 10:05:47;;;;;;;10.00;4.20;;;20.70;99.90;;;;;;5042164;28;20053;-79
2023/06/09 10:08:17;;;;;;;9.55;4.20;;;21.20;99.90;;;;;;5040092;28;20099;-79
2023/06/09 10:10:43;;;;;;;6.72;4.28;;;20.80;99.90;;;;;;5038993;28;20037;-79
2023/06/09 10:13:09;;;;;;;9.38;5.32;;;21.00;99.90;;;;;;5047243;28;20041;-79
2023/06/09 10:15:35;;;;;;;10.60;4.82;;;21.10;99.90;;;;;;5026232;28;20504;-79
2023/06/09 10:18:02;;;;;;;10.38;5.10;;;21.20;99.90;;;;;;5038337;28;20041;-79
2023/06/09 10:20:28;;;;;;;13.02;5.18;;;21.20;99.90;;;;;;5050030;28;20065;-79
2023/06/09 10:22:54;;;;;;;11.82;4.63;;;21.40;99.90;;;;;;5045244;28;20551;-79
2023/06/09 10:25:22;;;;;;;12.77;4.40;;;21.40;99.90;;;;;;5038480;28;20037;-79
2023/06/09 10:27:50;;;;;;;11.73;5.10;;;21.50;99.90;;;;;;5038977;28;20590;-80
2023/06/09 10:30:18;;;;;;;9.57;4.43;;;21.60;99.90;;;;;;5040999;28;20038;-79
2023/06/09 10:32:52;;;;;;;11.05;5.28;;;22.10;99.90;;;;;;5041349;28;20511;-79
2023/06/09 10:35:23;;;;;;;8.68;4.07;;;21.80;99.90;;;;;;5039340;28;20053;-79
2023/06/09 10:37:50;;;;;;;12.35;4.50;;;21.90;99.90;;;;;;5038495;28;20057;-79
2023/06/09 10:40:41;;;;;;;14.18;5.15;;;22.00;99.90;;;;;;5022529;28;20120;-78
2023/06/09 10:43:13;;;;;;;8.93;4.13;;;22.10;99.90;;;;;;5041217;28;20547;-80
2023/06/09 10:45:51;;;;;;;12.43;4.28;;;22.10;99.90;;;;;;5038289;28;20679;-79
2023/06/09 10:48:49;;;;;;;7.85;4.22;;;22.20;99.90;;;;;;5037999;28;20505;-80
2023/06/09 10:51:27;;;;;;;12.38;4.75;;;22.30;99.90;;;;;;5039759;28;20413;-80
2023/06/09 10:54:09;;;;;;;9.73;4.60;;;22.50;99.90;;;;;;5041389;28;20045;-80
2023/06/09 10:56:36;;;;;;;8.75;4.30;;;22.70;99.90;;;;;;5022241;28;20049;-80
2023/06/09 10:59:03;;;;;;;10.40;4.82;;;22.70;99.90;;;;;;5038208;28;20128;-79
2023/06/09 11:01:29;;;;;;;10.30;4.43;;;22.80;99.90;;;;;;5020642;28;20515;-80
2023/06/09 11:03:55;;;;;;;11.85;4.70;;;22.90;99.90;;;;;;5038483;28;20116;-80
2023/06/09 11:06:22;;;;;;;9.45;4.50;;;23.00;99.90;;;;;;5040048;28;20037;-80
2023/06/09 11:09:12;;;;;;;12.18;4.93;;;23.20;99.90;;;;;;5023405;28;20080;-80
2023/06/09 11:11:50;;;;;;;15.60;4.88;;;23.30;99.90;;;;;;5022230;28;20038;-80
2023/06/09 11:14:51;;;;;;;10.10;4.47;;;23.40;99.90;;;;;;5038386;28;20037;-81
2023/06/09 11:17:25;;;;;;;10.77;4.90;;;23.60;99.90;;;;;;4986737;28;20131;-80
2023/06/09 11:20:14;;;;;;;8.98;4.68;;;23.70;99.90;;;;;;5041299;28;20036;-80
2023/06/09 11:22:44;;;;;;;14.30;4.53;;;23.80;99.90;;;;;;5021983;28;20378;-80
2023/06/09 11:25:18;;;;;;;10.73;4.68;;;23.90;99.90;;;;;;5020477;28;20075;-80
2023/06/09 11:27:48;;;;;;;8.88;4.22;;;24.10;99.90;;;;;;5023600;28;20401;-81
2023/06/09 11:30:18;;;;;;;10.60;4.68;;;24.20;99.90;;;;;;5038881;28;20044;-80
2023/06/09 11:32:51;;;;;;;8.45;4.18;;;24.30;99.90;;;;;;5042468;28;20493;-81
2023/06/09 11:35:32;;;;;;;10.10;4.38;;;24.40;99.90;;;;;;5039517;28;20056;-81
2023/06/09 11:38:05;;;;;;;9.02;4.18;;;24.60;99.90;;;;;;5019607;28;20512;-81
2023/06/09 11:40:33;;;;;;;9.57;4.38;;;24.70;99.90;;;;;;5022696;28;20049;-80
2023/06/09 11:43:01;;;;;;;9.35;4.65;;;24.90;99.90;;;;;;5040720;28;20110;-80
2023/06/09 11:45:30;;;;;;;9.25;4.53;;;25.00;99.90;;;;;;5037836;28;20118;-80
2023/06/09 11:47:59;;;;;;;9.10;4.00;;;25.00;99.90;;;;;;5037320;28;20497;-80
2023/06/09 11:50:26;;;;;;;7.97;4.10;;;25.20;99.90;;;;;;5036527;28;20249;-80
2023/06/09 11:53:06;;;;;;;7.70;3.97;;;25.40;99.90;;;;;;5037655;28;20501;-81
2023/06/09 11:55:32;;;;;;;7.07;3.90;;;25.50;99.90;;;;;;5040752;28;20120;-81
2023/06/09 11:57:59;;;;;;;5.55;3.47;;;25.60;99.90;;;;;;5040323;28;20244;-80
2023/06/09 12:00:27;;;;;;;5.30;3.80;;;25.80;99.90;;;;;;5039863;28;20124;-80
2023/06/09 12:02:53;;;;;;;7.18;4.15;;;25.90;99.90;;;;;;5046950;28;20041;-80
2023/06/09 12:05:21;;;;;;;6.97;4.03;;;26.00;99.70;;;;;;5043278;28;20116;-80
2023/06/09 12:07:47;;;;;;;5.95;3.80;;;26.10;99.40;;;;;;5040581;28;20036;-80
2023/06/09 12:10:17;;;;;;;6.85;3.75;;;26.20;99.10;;;;;;5040085;28;20785;-80
2023/06/09 12:12:53;;;;;;;7.25;3.92;;;26.30;98.70;;;;;;5018659;28;20481;-80
2023/06/09 12:15:20;;;;;;;6.00;3.80;;;26.50;98.60;;;;;;5038784;28;20052;-80
2023/06/09 12:17:53;;;;;;;7.30;3.72;;;26.60;97.90;;;;;;5039773;28;20044;-80
2023/06/09 12:20:25;;;;;;;5.88;3.58;;;26.70;97.20;;;;;;5021726;28;20499;-80
2023/06/09 12:22:53;;;;;;;10.63;3.80;;;26.80;96.90;;;;;;5037467;28;20053;-80
2023/06/09 12:25:27;;;;;;;6.60;3.97;;;26.90;96.50;;;;;;5036864;28;20041;-80
2023/06/09 12:28:16;;;;;;;6.72;3.67;;;26.90;96.70;;;;;;5040506;28;20041;-80
2023/06/09 12:30:45;;;;;;;8.82;3.85;;;27.10;96.40;;;;;;5020759;28;20054;-80
2023/06/09 12:33:12;;;;;;;8.77;3.83;;;27.20;96.00;;;;;;5036208;28;20045;-80
2023/06/09 12:35:42;;;;;;;4.32;3.47;;;27.40;95.70;;;;;;5036661;28;20056;-80
2023/06/09 12:38:22;;;;;;;7.78;3.90;;;27.50;95.40;;;;;;5044266;28;20124;-80
2023/06/09 12:41:08;;;;;;;7.10;3.60;;;27.50;95.00;;;;;;5021283;28;20044;-80
2023/06/09 12:43:44;;;;;;;5.40;3.40;;;27.50;94.30;;;;;;5042987;28;20444;-80
2023/06/09 12:46:09;;;;;;;5.95;4.00;;;27.50;94.40;;;;;;5025730;28;20748;-80